createdAt,value
2022-08-30T00:00:35.099Z,100.00
2022-08-30T00:03:11.036Z,100.00
2022-08-30T00:05:42.345Z,100.00
2022-08-30T00:08:13.449Z,100.00
2022-08-30T00:10:46.049Z,100.00
2022-08-30T00:13:17.294Z,100.00
2022-08-30T00:15:49.116Z,100.00
2022-08-30T00:18:24.529Z,100.00
2022-08-30T00:20:55.865Z,100.00
2022-08-30T00:23:26.796Z,100.00
2022-08-30T00:25:56.870Z,100.00
2022-08-30T00:28:27.274Z,100.00
2022-08-30T00:30:57.805Z,100.00
2022-08-30T00:33:31.587Z,100.00
2022-08-30T00:36:02.352Z,100.00
2022-08-30T00:38:32.487Z,100.00
2022-08-30T00:41:02.666Z,100.00
2022-08-30T00:43:37.080Z,100.00
2022-08-30T00:46:10.325Z,100.00
2022-08-30T00:48:50.792Z,100.00
2022-08-30T00:51:24.348Z,100.00
2022-08-30T00:53:59.609Z,100.00
2022-08-30T00:56:31.638Z,100.00
2022-08-30T00:59:06.384Z,100.00
2022-08-30T01:01:37.710Z,100.00
2022-08-30T01:04:13.798Z,100.00
2022-08-30T01:06:44.273Z,100.00
2022-08-30T01:09:15.200Z,100.00
2022-08-30T01:11:48.800Z,100.00
2022-08-30T01:14:22.163Z,100.00
2022-08-30T01:17:01.539Z,100.00
2022-08-30T01:19:43.861Z,100.00
2022-08-30T01:22:26.749Z,100.00
2022-08-30T01:25:02.876Z,100.00
2022-08-30T01:27:35.974Z,100.00
2022-08-30T01:30:09.213Z,100.00
2022-08-30T01:32:45.697Z,100.00
2022-08-30T01:35:20.830Z,100.00
2022-08-30T01:37:51.157Z,100.00
2022-08-30T01:40:25.564Z,100.00
2022-08-30T01:42:55.621Z,100.00
2022-08-30T01:45:25.690Z,100.00
2022-08-30T01:47:56.163Z,100.00
2022-08-30T01:50:30.049Z,100.00
2022-08-30T01:53:00.062Z,100.00
2022-08-30T01:55:32.925Z,100.00
2022-08-30T01:58:03.494Z,100.00
2022-08-30T02:00:33.744Z,100.00
2022-08-30T02:03:03.972Z,100.00
2022-08-30T02:05:34.079Z,100.00
2022-08-30T02:08:04.281Z,100.00
2022-08-30T02:10:36.977Z,100.00
2022-08-30T02:13:07.201Z,100.00
2022-08-30T02:15:41.853Z,100.00
2022-08-30T02:18:13.130Z,100.00
2022-08-30T02:20:43.551Z,100.00
2022-08-30T02:23:13.639Z,100.00
2022-08-30T02:25:47.119Z,100.00
2022-08-30T02:28:19.793Z,100.00
2022-08-30T02:30:50.806Z,100.00
2022-08-30T02:33:22.344Z,100.00
2022-08-30T02:35:52.540Z,100.00
2022-08-30T02:38:23.734Z,100.00
2022-08-30T02:40:56.454Z,100.00
2022-08-30T02:43:26.936Z,100.00
2022-08-30T02:45:57.685Z,100.00
2022-08-30T02:48:27.913Z,100.00
2022-08-30T02:50:57.906Z,100.00
2022-08-30T02:53:27.890Z,100.00
2022-08-30T02:56:00.463Z,100.00
2022-08-30T02:58:30.609Z,100.00
2022-08-30T03:01:00.964Z,100.00
2022-08-30T03:03:31.139Z,100.00
2022-08-30T03:06:03.252Z,100.00
2022-08-30T03:08:34.480Z,100.00
2022-08-30T03:11:07.252Z,100.00
2022-08-30T03:13:37.923Z,100.00
2022-08-30T03:16:08.029Z,100.00
2022-08-30T03:18:38.122Z,100.00
2022-08-30T03:21:13.784Z,100.00
2022-08-30T03:23:44.940Z,100.00
2022-08-30T03:26:17.522Z,100.00
2022-08-30T03:28:47.603Z,100.00
2022-08-30T03:31:17.774Z,100.00
2022-08-30T03:33:47.766Z,100.00
2022-08-30T03:36:17.945Z,100.00
2022-08-30T03:38:47.966Z,100.00
2022-08-30T03:41:20.616Z,100.00
2022-08-30T03:43:50.620Z,100.00
2022-08-30T03:46:20.906Z,100.00
2022-08-30T03:48:57.720Z,100.00
2022-08-30T03:51:28.811Z,100.00
2022-08-30T03:53:58.951Z,100.00
2022-08-30T03:56:31.846Z,100.00
2022-08-30T03:59:01.933Z,100.00
2022-08-30T04:01:32.062Z,100.00
2022-08-30T04:04:02.145Z,100.00
2022-08-30T04:06:33.694Z,100.00
2022-08-30T04:09:03.847Z,100.00
2022-08-30T04:11:36.563Z,100.00
2022-08-30T04:14:06.638Z,100.00
2022-08-30T04:16:36.720Z,100.00
2022-08-30T04:19:07.157Z,100.00
2022-08-30T04:21:40.933Z,100.00
2022-08-30T04:24:13.348Z,100.00
2022-08-30T04:26:45.969Z,100.00
2022-08-30T04:29:16.923Z,100.00
2022-08-30T04:31:47.420Z,100.00
2022-08-30T04:34:17.999Z,100.00
2022-08-30T04:36:48.375Z,100.00
2022-08-30T04:39:19.129Z,100.00
2022-08-30T04:41:51.672Z,100.00
2022-08-30T04:44:21.834Z,100.00
2022-08-30T04:46:51.859Z,100.00
2022-08-30T04:49:22.939Z,100.00
2022-08-30T04:51:52.950Z,100.00
2022-08-30T04:54:22.932Z,100.00
2022-08-30T04:56:55.518Z,100.00
2022-08-30T04:59:25.491Z,100.00
2022-08-30T05:01:55.607Z,100.00
2022-08-30T05:04:25.643Z,100.00
2022-08-30T05:06:55.673Z,100.00
2022-08-30T05:09:25.696Z,100.00
2022-08-30T05:11:58.247Z,100.00
2022-08-30T05:14:28.280Z,100.00
2022-08-30T05:16:58.267Z,100.00
2022-08-30T05:19:28.283Z,100.00
2022-08-30T05:21:58.227Z,100.00
2022-08-30T05:24:28.671Z,100.00
2022-08-30T05:27:01.508Z,100.00
2022-08-30T05:29:33.585Z,100.00
2022-08-30T05:32:03.582Z,100.00
2022-08-30T05:34:34.753Z,100.00
2022-08-30T05:37:05.383Z,100.00
2022-08-30T05:39:45.976Z,100.00
2022-08-30T05:42:23.648Z,100.00
2022-08-30T05:44:54.897Z,100.00
2022-08-30T05:47:25.473Z,100.00
2022-08-30T05:49:55.613Z,100.00
2022-08-30T05:52:25.707Z,100.00
2022-08-30T05:54:59.383Z,100.00
2022-08-30T05:57:35.102Z,100.00
2022-08-30T06:00:13.544Z,100.00
2022-08-30T06:02:44.491Z,100.00
2022-08-30T06:05:16.041Z,100.00
2022-08-30T06:07:46.654Z,100.00
2022-08-30T06:10:16.874Z,100.00
2022-08-30T06:12:49.907Z,100.00
2022-08-30T06:15:20.203Z,98.74
2022-08-30T06:17:51.471Z,89.26
2022-08-30T06:20:21.710Z,84.56
2022-08-30T06:22:51.927Z,79.35
2022-08-30T06:25:22.232Z,75.42
2022-08-30T06:27:56.577Z,72.51
2022-08-30T06:30:26.857Z,71.78
2022-08-30T06:32:56.814Z,68.49
2022-08-30T06:35:26.799Z,64.44
2022-08-30T06:37:57.195Z,60.99
2022-08-30T06:40:27.941Z,59.02
2022-08-30T06:43:00.664Z,54.42
2022-08-30T06:45:31.069Z,54.59
2022-08-30T06:48:01.979Z,51.86
2022-08-30T06:50:32.060Z,54.31
2022-08-30T06:53:06.075Z,56.55
2022-08-30T06:55:36.218Z,54.03
2022-08-30T06:58:08.746Z,51.85
2022-08-30T07:00:38.914Z,49.76
2022-08-30T07:03:08.933Z,50.04
2022-08-30T07:05:38.957Z,48.30
2022-08-30T07:08:09.032Z,46.96
2022-08-30T07:10:41.510Z,46.91
2022-08-30T07:13:15.010Z,45.87
2022-08-30T07:15:47.020Z,44.39
2022-08-30T07:18:30.420Z,45.66
2022-08-30T07:21:01.889Z,44.40
2022-08-30T07:23:31.855Z,42.71
2022-08-30T07:26:01.885Z,42.50
2022-08-30T07:28:36.575Z,41.09
2022-08-30T07:33:38.607Z,39.87
2022-08-30T07:36:09.727Z,39.73
2022-08-30T07:38:40.304Z,38.39
2022-08-30T07:41:10.769Z,38.58
2022-08-30T07:43:43.344Z,37.02
2022-08-30T07:46:13.661Z,36.39
2022-08-30T07:48:44.101Z,35.23
2022-08-30T07:51:19.041Z,34.65
2022-08-30T07:53:49.862Z,34.88
2022-08-30T07:56:20.891Z,33.68
2022-08-30T07:58:54.378Z,34.45
2022-08-30T08:01:26.332Z,35.31
2022-08-30T08:03:56.416Z,34.94
2022-08-30T08:06:27.709Z,35.28
2022-08-30T08:09:04.814Z,34.19
2022-08-30T08:11:37.860Z,35.96
2022-08-30T08:14:11.269Z,37.42
2022-08-30T08:16:44.787Z,37.51
2022-08-30T08:19:14.779Z,36.89
2022-08-30T08:21:44.929Z,35.46
2022-08-30T08:24:15.437Z,34.16
2022-08-30T08:26:46.014Z,33.03
2022-08-30T08:29:18.933Z,32.38
2022-08-30T08:31:49.411Z,32.36
2022-08-30T08:34:23.468Z,32.83
2022-08-30T08:36:54.035Z,33.22
2022-08-30T08:39:24.038Z,33.32
2022-08-30T08:42:05.527Z,31.88
2022-08-30T08:44:55.258Z,32.30
2022-08-30T08:47:34.581Z,31.25
2022-08-30T08:50:09.825Z,31.47
2022-08-30T08:53:05.409Z,31.10
2022-08-30T08:55:35.990Z,32.00
2022-08-30T08:58:06.203Z,32.50
2022-08-30T09:00:38.881Z,31.68
2022-08-30T09:03:09.187Z,31.65
2022-08-30T09:05:43.781Z,32.92
2022-08-30T09:08:18.227Z,31.79
2022-08-30T09:10:56.941Z,31.09
2022-08-30T09:13:29.328Z,31.37
2022-08-30T09:16:05.270Z,31.04
2022-08-30T09:18:51.418Z,31.95
2022-08-30T09:21:29.699Z,31.88
2022-08-30T09:24:05.380Z,32.94
2022-08-30T09:26:39.108Z,31.74
2022-08-30T09:29:20.452Z,31.07
2022-08-30T09:32:25.282Z,33.28
2022-08-30T09:34:47.880Z,32.00
2022-08-30T09:37:31.420Z,31.14
2022-08-30T09:40:03.156Z,32.80
2022-08-30T09:42:33.311Z,33.40
2022-08-30T09:45:13.018Z,33.87
2022-08-30T09:47:46.961Z,32.45
2022-08-30T09:50:24.098Z,32.02
2022-08-30T09:53:19.907Z,30.59
2022-08-30T09:56:10.195Z,31.07
2022-08-30T09:59:05.535Z,31.33
2022-08-30T10:01:45.769Z,31.09
2022-08-30T10:04:30.857Z,29.54
2022-08-30T10:07:13.683Z,30.29
2022-08-30T10:09:55.322Z,33.08
2022-08-30T10:12:35.632Z,33.61
2022-08-30T10:15:15.164Z,33.49
2022-08-30T10:17:59.305Z,33.92
2022-08-30T10:20:45.939Z,31.74
2022-08-30T10:23:24.931Z,32.94
2022-08-30T10:26:06.150Z,32.06
2022-08-30T10:28:46.818Z,30.56
2022-08-30T10:31:30.006Z,29.64
2022-08-30T10:34:08.876Z,31.42
2022-08-30T10:36:49.931Z,31.90
2022-08-30T10:39:30.993Z,30.28
2022-08-30T10:42:11.320Z,30.63
2022-08-30T10:44:48.105Z,29.16
2022-08-30T10:47:34.622Z,27.33
2022-08-30T10:50:15.074Z,28.81
2022-08-30T10:52:57.198Z,28.95
2022-08-30T10:55:31.659Z,29.38
2022-08-30T10:58:04.363Z,28.71
2022-08-30T11:00:49.015Z,29.40
2022-08-30T11:07:23.158Z,30.98
2022-08-30T11:10:25.677Z,32.52
2022-08-30T11:13:07.517Z,34.02
2022-08-30T11:15:55.066Z,34.21
2022-08-30T11:18:27.725Z,33.80
2022-08-30T11:21:21.158Z,33.39
2022-08-30T11:24:11.674Z,31.76
2022-08-30T11:27:03.582Z,30.88
2022-08-30T11:29:44.126Z,31.22
2022-08-30T11:32:47.553Z,30.63
2022-08-30T11:35:45.964Z,29.31
2022-08-30T11:38:57.939Z,29.76
2022-08-30T11:41:43.149Z,30.36
2022-08-30T11:44:34.823Z,29.65
2022-08-30T11:47:42.075Z,29.23
2022-08-30T11:50:20.078Z,29.50
2022-08-30T11:53:02.745Z,28.57
2022-08-30T11:56:01.380Z,28.17
2022-08-30T11:58:49.731Z,29.33
2022-08-30T12:01:51.234Z,29.87
2022-08-30T12:04:40.148Z,28.99
2022-08-30T12:07:12.639Z,30.63
2022-08-30T12:10:09.399Z,30.63
2022-08-30T12:12:58.147Z,30.21
2022-08-30T12:15:59.506Z,29.21
2022-08-30T12:18:46.575Z,29.33
2022-08-30T12:21:33.441Z,28.46
2022-08-30T12:24:24.904Z,27.32
2022-08-30T12:26:58.296Z,28.15
2022-08-30T12:29:31.083Z,28.25
2022-08-30T12:32:05.480Z,28.08
2022-08-30T12:34:53.267Z,29.02
2022-08-30T12:37:28.826Z,28.38
2022-08-30T12:40:13.746Z,27.88
2022-08-30T12:42:53.763Z,28.73
2022-08-30T12:45:30.144Z,28.63
2022-08-30T12:48:04.897Z,28.17
2022-08-30T12:50:48.951Z,28.06
2022-08-30T12:53:30.193Z,28.35
2022-08-30T12:56:03.843Z,28.89
2022-08-30T12:58:43.486Z,29.30
2022-08-30T13:01:32.438Z,29.85
2022-08-30T13:04:15.954Z,30.42
2022-08-30T13:06:56.334Z,30.58
2022-08-30T13:09:33.956Z,30.42
2022-08-30T13:12:07.247Z,30.17
2022-08-30T13:14:42.401Z,28.14
2022-08-30T13:17:25.710Z,27.96
2022-08-30T13:20:05.535Z,27.59
2022-08-30T13:22:41.064Z,28.24
2022-08-30T13:25:14.111Z,27.94
2022-08-30T13:27:44.124Z,28.49
2022-08-30T13:30:18.749Z,27.63
2022-08-30T13:32:48.781Z,26.68
2022-08-30T13:35:19.179Z,26.60
2022-08-30T13:37:52.362Z,26.82
2022-08-30T13:40:24.752Z,27.96
2022-08-30T13:42:55.070Z,29.03
2022-08-30T13:45:41.722Z,30.38
2022-08-30T13:48:13.194Z,30.19
2022-08-30T13:50:43.834Z,30.27
2022-08-30T13:53:51.875Z,30.57
2022-08-30T13:56:08.601Z,30.39
2022-08-30T13:58:44.225Z,31.01
2022-08-30T14:01:17.419Z,31.36
2022-08-30T14:07:11.987Z,31.17
2022-08-30T14:09:30.157Z,31.52
2022-08-30T14:12:00.762Z,31.63
2022-08-30T14:14:42.641Z,31.04
2022-08-30T14:17:13.598Z,30.70
2022-08-30T14:19:43.783Z,30.86
2022-08-30T14:22:13.787Z,31.19
2022-08-30T14:24:49.121Z,31.88
2022-08-30T14:27:19.134Z,31.76
2022-08-30T14:29:52.682Z,30.75
2022-08-30T14:32:22.961Z,30.76
2022-08-30T14:34:53.869Z,30.91
2022-08-30T14:37:23.869Z,31.49
2022-08-30T14:39:57.827Z,31.43
2022-08-30T14:42:27.848Z,31.94
2022-08-30T14:44:57.805Z,31.39
2022-08-30T14:47:29.687Z,31.04
2022-08-30T14:50:01.927Z,29.90
2022-08-30T14:52:32.679Z,28.44
2022-08-30T14:55:09.689Z,28.28
2022-08-30T14:57:40.717Z,27.98
2022-08-30T15:00:16.032Z,27.43
2022-08-30T15:02:47.323Z,26.87
2022-08-30T15:05:17.314Z,27.35
2022-08-30T15:07:52.960Z,27.18
2022-08-30T15:10:25.833Z,25.15
2022-08-30T15:12:56.138Z,24.55
2022-08-30T15:15:26.520Z,23.85
2022-08-30T15:17:56.457Z,22.89
2022-08-30T15:20:27.629Z,25.25
2022-08-30T15:22:57.621Z,25.54
2022-08-30T15:25:30.509Z,26.40
2022-08-30T15:28:00.455Z,28.38
2022-08-30T15:30:30.779Z,30.44
2022-08-30T15:33:00.811Z,32.12
2022-08-30T15:35:30.882Z,30.14
2022-08-30T15:38:01.184Z,27.81
2022-08-30T15:40:35.742Z,26.82
2022-08-30T15:43:06.425Z,28.37
2022-08-30T15:45:36.847Z,29.67
2022-08-30T15:48:07.409Z,30.85
2022-08-30T15:50:38.787Z,31.52
2022-08-30T15:53:10.496Z,33.02
2022-08-30T15:55:43.422Z,32.88
2022-08-30T15:58:13.608Z,30.30
2022-08-30T16:00:45.143Z,29.46
2022-08-30T16:03:15.493Z,28.70
2022-08-30T16:05:45.550Z,29.38
2022-08-30T16:08:15.706Z,30.72
2022-08-30T16:10:52.547Z,34.82
2022-08-30T16:13:23.106Z,35.43
2022-08-30T16:15:53.350Z,36.30
2022-08-30T16:18:23.400Z,36.13
2022-08-30T16:21:04.810Z,36.41
2022-08-30T16:23:36.325Z,37.41
2022-08-30T16:26:12.131Z,38.75
2022-08-30T16:28:44.773Z,39.62
2022-08-30T16:31:16.372Z,40.19
2022-08-30T16:33:47.234Z,41.24
2022-08-30T16:36:23.437Z,41.81
2022-08-30T16:38:58.299Z,42.50
2022-08-30T16:41:32.600Z,41.91
2022-08-30T16:44:03.799Z,42.43
2022-08-30T16:46:36.334Z,42.58
2022-08-30T16:49:08.814Z,43.18
2022-08-30T16:51:40.139Z,43.35
2022-08-30T16:54:10.761Z,44.27
2022-08-30T16:56:43.665Z,45.12
2022-08-30T16:59:16.787Z,45.86
2022-08-30T17:01:48.157Z,46.00
2022-08-30T17:04:19.619Z,45.66
2022-08-30T17:06:51.518Z,47.28
2022-08-30T17:09:22.470Z,48.01
2022-08-30T17:11:55.214Z,48.71
2022-08-30T17:14:27.909Z,48.75
2022-08-30T17:17:00.916Z,49.10
2022-08-30T17:19:31.322Z,50.38
2022-08-30T17:22:01.816Z,50.80
2022-08-30T17:24:32.164Z,50.24
2022-08-30T17:27:05.101Z,51.99
2022-08-30T17:29:35.774Z,52.97
2022-08-30T17:32:06.585Z,53.43
2022-08-30T17:34:36.955Z,55.16
2022-08-30T17:37:07.625Z,54.92
2022-08-30T17:39:39.124Z,55.55
2022-08-30T17:42:12.857Z,55.99
2022-08-30T17:44:42.859Z,57.14
2022-08-30T17:47:13.313Z,57.43
2022-08-30T17:49:44.117Z,58.04
2022-08-30T17:52:14.275Z,59.40
2022-08-30T17:54:44.581Z,60.40
2022-08-30T17:57:17.215Z,61.64
2022-08-30T17:59:47.989Z,60.88
2022-08-30T18:02:23.051Z,62.16
2022-08-30T18:05:00.994Z,61.89
2022-08-30T18:07:31.256Z,63.01
2022-08-30T18:10:01.403Z,62.81
2022-08-30T18:12:34.134Z,64.29
2022-08-30T18:15:12.525Z,64.65
2022-08-30T18:17:44.903Z,64.90
2022-08-30T18:20:18.337Z,65.56
2022-08-30T18:22:48.458Z,66.66
2022-08-30T18:25:19.601Z,65.68
2022-08-30T18:27:58.156Z,66.76
2022-08-30T18:30:34.013Z,67.52
2022-08-30T18:33:07.788Z,68.90
2022-08-30T18:35:42.900Z,68.50
2022-08-30T18:38:15.643Z,69.19
2022-08-30T18:40:46.828Z,69.22
2022-08-30T18:43:24.593Z,69.14
2022-08-30T18:46:05.593Z,67.27
2022-08-30T18:48:37.477Z,67.35
2022-08-30T18:51:13.118Z,66.73
2022-08-30T18:53:44.489Z,68.61
2022-08-30T18:56:16.780Z,67.13
2022-08-30T18:58:50.249Z,67.96
2022-08-30T19:01:22.930Z,68.06
2022-08-30T19:03:53.813Z,67.20
2022-08-30T19:06:23.855Z,66.75
2022-08-30T19:08:53.923Z,67.96
2022-08-30T19:11:23.931Z,67.22
2022-08-30T19:13:56.547Z,64.80
2022-08-30T19:16:26.621Z,63.86
2022-08-30T19:18:56.768Z,62.61
2022-08-30T19:21:28.087Z,61.92
2022-08-30T19:23:58.257Z,60.79
2022-08-30T19:26:29.040Z,61.82
2022-08-30T19:29:03.340Z,61.07
2022-08-30T19:31:34.190Z,60.45
2022-08-30T19:34:04.341Z,60.08
2022-08-30T19:36:35.034Z,60.16
2022-08-30T19:39:05.158Z,60.04
2022-08-30T19:41:36.025Z,60.77
2022-08-30T19:44:11.448Z,59.25
2022-08-30T19:46:41.744Z,58.89
2022-08-30T19:49:13.226Z,58.33
2022-08-30T19:51:46.822Z,57.28
2022-08-30T19:54:17.707Z,55.77
2022-08-30T19:56:48.135Z,55.08
2022-08-30T19:59:22.479Z,54.81
2022-08-30T20:01:52.620Z,54.89
2022-08-30T20:04:22.776Z,54.83
2022-08-30T20:06:52.831Z,54.40
2022-08-30T20:09:22.941Z,53.51
2022-08-30T20:11:57.238Z,54.23
2022-08-30T20:14:32.245Z,54.72
2022-08-30T20:17:02.528Z,55.59
2022-08-30T20:19:33.687Z,56.15
2022-08-30T20:22:07.899Z,56.73
2022-08-30T20:24:43.505Z,56.63
2022-08-30T20:27:14.388Z,58.03
2022-08-30T20:29:47.030Z,57.67
2022-08-30T20:32:17.437Z,58.06
2022-08-30T20:34:47.686Z,58.17
2022-08-30T20:37:19.560Z,57.68
2022-08-30T20:39:49.709Z,58.69
2022-08-30T20:42:20.475Z,59.06
2022-08-30T20:44:53.076Z,59.58
2022-08-30T20:47:24.662Z,58.99
2022-08-30T20:49:54.907Z,59.36
2022-08-30T20:52:24.922Z,60.14
2022-08-30T20:54:55.039Z,60.58
2022-08-30T20:57:25.064Z,61.38
2022-08-30T20:59:57.851Z,62.05
2022-08-30T21:02:29.740Z,62.50
2022-08-30T21:04:59.921Z,62.85
2022-08-30T21:07:29.931Z,62.67
2022-08-30T21:10:00.085Z,63.58
2022-08-30T21:12:31.104Z,63.42
2022-08-30T21:15:20.757Z,61.88
2022-08-30T21:17:55.047Z,62.00
2022-08-30T21:20:25.239Z,63.10
2022-08-30T21:22:55.936Z,62.77
2022-08-30T21:25:26.220Z,63.07
2022-08-30T21:27:56.397Z,62.88
2022-08-30T21:30:29.496Z,63.33
2022-08-30T21:32:59.991Z,63.71
2022-08-30T21:35:43.409Z,65.04
2022-08-30T21:38:14.255Z,64.77
2022-08-30T21:40:44.995Z,67.18
2022-08-30T21:43:15.399Z,69.03
2022-08-30T21:45:50.325Z,68.66
2022-08-30T21:48:20.393Z,68.95
2022-08-30T21:50:50.362Z,69.11
2022-08-30T21:53:20.514Z,69.91
2022-08-30T21:55:50.563Z,69.23
2022-08-30T21:58:21.679Z,70.09
2022-08-30T22:00:54.851Z,69.91
2022-08-30T22:03:24.975Z,70.61
2022-08-30T22:05:55.699Z,69.80
2022-08-30T22:08:25.739Z,69.87
2022-08-30T22:10:55.803Z,70.35
2022-08-30T22:13:25.820Z,69.41
2022-08-30T22:15:58.506Z,70.20
2022-08-30T22:18:28.523Z,71.02
2022-08-30T22:20:59.298Z,71.42
2022-08-30T22:23:30.197Z,71.30
2022-08-30T22:26:01.180Z,67.61
2022-08-30T22:28:31.794Z,69.46
2022-08-30T22:31:09.230Z,67.27
2022-08-30T22:33:40.387Z,66.11
2022-08-30T22:36:14.202Z,66.51
2022-08-30T22:38:44.838Z,68.30
2022-08-30T22:41:18.026Z,67.65
2022-08-30T22:43:48.610Z,65.94
2022-08-30T22:46:33.942Z,67.08
2022-08-30T22:49:05.743Z,66.24
2022-08-30T22:51:37.431Z,65.32
2022-08-30T22:54:11.278Z,61.96
2022-08-30T22:56:42.795Z,59.02
2022-08-30T22:59:12.924Z,60.04
2022-08-30T23:01:47.132Z,60.09
2022-08-30T23:04:17.274Z,59.85
2022-08-30T23:06:50.101Z,59.27
2022-08-30T23:09:20.847Z,59.16
2022-08-30T23:11:50.891Z,59.32
2022-08-30T23:14:20.858Z,59.87
2022-08-30T23:16:53.592Z,60.27
2022-08-30T23:19:23.756Z,59.08
2022-08-30T23:21:54.014Z,60.54
2022-08-30T23:24:36.573Z,59.74
2022-08-30T23:27:19.985Z,60.82
2022-08-30T23:30:02.524Z,61.01
2022-08-30T23:32:48.407Z,60.14
2022-08-30T23:35:30.890Z,60.48
2022-08-30T23:38:14.556Z,61.18
2022-08-30T23:40:57.145Z,61.00
2022-08-30T23:43:39.670Z,61.63
2022-08-30T23:46:22.257Z,62.46
2022-08-30T23:49:07.638Z,63.31
2022-08-30T23:51:50.883Z,63.96
2022-08-30T23:54:33.530Z,64.32
2022-08-30T23:57:15.996Z,65.25
2022-08-30T23:59:58.561Z,64.52
